Time;durP1;ratioP1;P1;durP2;ratioP2;P2;SDS_P1;SDS_P2;PMS_P1;PMS_P2;Temp;Humidity;BMP_temperature;BMP_pressure;BME280_temperature;BME280_humidity;BME280_pressure;Samples;Min_cycle;Max_cycle;Signal;HPM_P1;HPM_P2
2023/03/07 00:02:15;;;;;;;;;18.00;17.67;;;;;10.69;100.00;100319.13;5039321;28;45338;-76
2023/03/07 00:04:45;;;;;;;;;17.25;17.25;;;;;10.60;100.00;100322.78;5028850;28;45432;-76
2023/03/07 00:07:10;;;;;;;;;18.00;17.75;;;;;10.55;100.00;100315.13;5036874;28;47226;-76
2023/03/07 00:09:36;;;;;;;;;21.25;21.00;;;;;10.44;100.00;100305.38;5029923;28;45339;-76
2023/03/07 00:12:01;;;;;;;;;27.00;18.00;;;;;10.36;100.00;100301.75;5043977;28;45297;-76
2023/03/07 00:14:27;;;;;;;;;24.00;18.00;;;;;10.34;100.00;100288.31;5051059;28;45405;-76
2023/03/07 00:16:52;;;;;;;;;23.33;19.33;;;;;10.59;100.00;100313.81;5045445;28;47391;-76
2023/03/07 00:19:18;;;;;;;;;29.00;24.75;;;;;10.59;100.00;100319.25;5039366;28;45406;-76
2023/03/07 00:21:43;;;;;;;;;21.50;20.00;;;;;10.47;100.00;100307.78;5043678;28;45376;-76
2023/03/07 00:24:09;;;;;;;;;23.75;18.00;;;;;10.49;100.00;100313.06;5036968;28;45555;-76
2023/03/07 00:26:38;;;;;;;;;21.25;18.00;;;;;10.60;100.00;100315.50;5043507;28;48156;-76
2023/03/07 00:29:05;;;;;;;;;27.00;24.50;;;;;10.49;100.00;100289.47;5034537;28;45597;-76
2023/03/07 00:31:31;;;;;;;;;25.75;19.25;;;;;10.47;100.00;100277.03;5035696;28;45432;-76
2023/03/07 00:33:56;;;;;;;;;20.00;19.00;;;;;10.56;100.00;100270.66;5034796;28;45547;-76
2023/03/07 00:36:22;;;;;;;;;22.00;19.33;;;;;10.54;100.00;100294.41;5042252;28;46447;-76
2023/03/07 00:38:48;;;;;;;;;29.00;19.75;;;;;10.63;100.00;100304.31;5033620;28;45240;-76
2023/03/07 00:41:22;;;;;;;;;25.25;23.25;;;;;10.74;100.00;100301.31;5042398;28;45244;-76
2023/03/07 00:43:48;;;;;;;;;26.25;23.75;;;;;10.48;100.00;100285.03;5028434;28;45360;-76
2023/03/07 00:46:16;;;;;;;;;23.00;20.25;;;;;10.63;100.00;100303.47;5041155;28;47313;-76
2023/03/07 00:48:42;;;;;;;;;21.00;18.50;;;;;10.61;100.00;100300.03;5030467;28;45517;-76
2023/03/07 00:51:10;;;;;;;;;22.75;19.75;;;;;10.58;100.00;100287.66;5040870;28;45472;-77
2023/03/07 00:53:35;;;;;;;;;28.25;20.25;;;;;10.36;100.00;100288.19;5030354;28;45644;-76
2023/03/07 00:56:04;;;;;;;;;26.25;20.25;;;;;10.37;100.00;100281.72;5042018;28;47180;-76
2023/03/07 00:58:31;;;;;;;;;24.75;19.50;;;;;10.37;100.00;100260.00;5039382;28;45500;-76
2023/03/07 01:00:57;;;;;;;;;24.25;20.25;;;;;10.42;100.00;100258.50;5047599;28;45350;-77
2023/03/07 01:03:24;;;;;;;;;20.75;18.25;;;;;10.50;100.00;100271.31;5058704;28;45345;-76
2023/03/07 01:05:50;;;;;;;;;28.50;22.00;;;;;10.41;100.00;100264.09;5043021;28;47380;-77
2023/03/07 01:08:17;;;;;;;;;30.00;23.00;;;;;10.45;100.00;100279.06;5046970;28;45419;-77
2023/03/07 01:10:43;;;;;;;;;25.25;18.25;;;;;10.44;100.00;100255.66;5033960;28;45341;-77
2023/03/07 01:13:11;;;;;;;;;15.50;13.75;;;;;10.19;100.00;100223.88;5035392;28;45628;-77
2023/03/07 01:15:37;;;;;;;;;30.25;20.75;;;;;10.19;100.00;100251.03;5039136;28;46500;-76
2023/03/07 01:18:06;;;;;;;;;23.25;21.00;;;;;10.46;100.00;100256.31;5035403;28;45465;-77
2023/03/07 01:20:33;;;;;;;;;22.75;20.00;;;;;10.41;100.00;100245.94;5053140;28;45402;-77
2023/03/07 01:22:59;;;;;;;;;19.50;18.50;;;;;10.43;100.00;100248.50;5029798;28;45398;-76
2023/03/07 01:25:24;;;;;;;;;29.50;22.25;;;;;10.44;100.00;100233.91;5049946;28;48505;-76
2023/03/07 01:27:57;;;;;;;;;26.75;22.00;;;;;10.46;100.00;100242.75;5028018;28;45466;-77
2023/03/07 01:30:24;;;;;;;;;22.75;18.00;;;;;10.37;100.00;100238.28;5059496;28;45601;-76
2023/03/07 01:33:00;;;;;;;;;25.50;20.25;;;;;10.21;100.00;100227.31;5034711;28;45397;-76
2023/03/07 01:35:26;;;;;;;;;24.00;20.00;;;;;10.40;100.00;100236.09;5040438;28;47869;-76
2023/03/07 01:37:53;;;;;;;;;24.75;21.75;;;;;10.37;100.00;100224.72;5037483;28;45760;-76
2023/03/07 01:40:20;;;;;;;;;34.25;27.25;;;;;10.13;100.00;100203.63;5041095;28;45413;-77
2023/03/07 01:42:45;;;;;;;;;22.25;17.50;;;;;9.97;100.00;100166.38;5040518;28;45234;-76
2023/03/07 01:45:11;;;;;;;;;15.25;11.75;;;;;10.21;100.00;100224.59;5052062;28;48281;-76
2023/03/07 01:47:36;;;;;;;;;26.00;22.50;;;;;10.05;100.00;100223.44;5047022;28;45246;-76
2023/03/07 01:50:07;;;;;;;;;24.25;23.50;;;;;9.91;100.00;100210.41;5043068;28;45254;-76
2023/03/07 01:52:44;;;;;;;;;27.75;23.50;;;;;10.08;100.00;100189.69;5042044;28;45711;-76
2023/03/07 01:55:20;;;;;;;;;24.25;19.25;;;;;10.17;100.00;100210.47;5043002;28;46391;-76
2023/03/07 01:57:48;;;;;;;;;25.25;23.00;;;;;9.93;100.00;100208.41;5038350;28;45513;-76
2023/03/07 02:00:22;;;;;;;;;23.50;19.50;;;;;10.01;100.00;100197.59;5043952;28;45442;-76
2023/03/07 02:03:08;;;;;;;;;29.75;24.50;;;;;10.05;100.00;100207.13;5038678;28;45255;-76
2023/03/07 02:05:37;;;;;;;;;20.75;19.50;;;;;10.12;100.00;100185.63;5029989;28;47234;-76
2023/03/07 02:08:05;;;;;;;;;28.75;23.75;;;;;10.09;100.00;100186.81;5032107;28;45527;-76
2023/03/07 02:10:32;;;;;;;;;32.25;22.50;;;;;9.81;100.00;100168.94;5042245;28;45346;-76
2023/03/07 02:12:58;;;;;;;;;28.25;23.00;;;;;9.80;100.00;100175.38;5053320;28;45650;-76
2023/03/07 02:15:23;;;;;;;;;25.25;20.50;;;;;10.13;100.00;100181.91;5043629;28;47561;-76
2023/03/07 02:17:50;;;;;;;;;21.25;19.50;;;;;9.89;100.00;100179.03;5035457;28;45246;-76
2023/03/07 02:20:30;;;;;;;;;22.25;21.25;;;;;10.03;100.00;100182.00;5035525;28;45271;-76
2023/03/07 02:22:56;;;;;;;;;23.25;20.75;;;;;10.04;100.00;100153.88;5056122;28;45674;-76
2023/03/07 02:25:36;;;;;;;;;32.25;24.25;;;;;10.07;100.00;100180.69;5050957;28;46857;-76
2023/03/07 02:28:03;;;;;;;;;23.25;22.75;;;;;10.02;100.00;100150.44;5034255;28;45453;-76
2023/03/07 02:30:29;;;;;;;;;27.75;21.50;;;;;9.99;100.00;100142.66;5040505;28;45465;-77
2023/03/07 02:32:54;;;;;;;;;29.00;22.50;;;;;9.98;100.00;100131.94;5053097;28;45397;-77
2023/03/07 02:35:23;;;;;;;;;24.00;20.50;;;;;10.23;100.00;100157.41;5041139;28;45846;-76
2023/03/07 02:37:54;;;;;;;;;23.75;21.25;;;;;10.01;100.00;100156.88;5034093;28;45555;-77
2023/03/07 02:40:23;;;;;;;;;24.50;19.00;;;;;10.03;100.00;100143.16;5033417;28;45343;-76
2023/03/07 02:42:52;;;;;;;;;28.25;24.25;;;;;9.98;100.00;100135.50;5040112;28;45688;-77
2023/03/07 02:45:18;;;;;;;;;26.00;21.00;;;;;10.08;100.00;100159.84;5042385;28;46961;-77
2023/03/07 02:47:45;;;;;;;;;17.75;16.50;;;;;9.83;100.00;100138.97;5040939;28;45378;-77
2023/03/07 02:50:15;;;;;;;;;22.25;18.75;;;;;10.04;100.00;100148.44;5041528;28;45460;-76
2023/03/07 02:52:41;;;;;;;;;25.75;20.00;;;;;9.77;100.00;100105.19;5034370;28;45369;-77
2023/03/07 02:55:07;;;;;;;;;26.50;21.25;;;;;10.15;100.00;100140.00;5042558;28;46598;-77
2023/03/07 02:57:33;;;;;;;;;18.50;16.75;;;;;10.16;100.00;100128.16;5035326;28;45325;-77
2023/03/07 02:59:59;;;;;;;;;22.00;21.25;;;;;10.19;100.00;100140.59;5035105;28;45483;-77
2023/03/07 03:02:25;;;;;;;;;24.25;22.50;;;;;10.08;100.00;100113.69;5040598;28;45809;-77
2023/03/07 03:04:50;;;;;;;;;21.25;18.25;;;;;9.99;100.00;100126.38;5042079;28;45587;-77
2023/03/07 03:07:16;;;;;;;;;18.75;17.75;;;;;10.09;100.00;100132.50;5036639;28;45363;-76
2023/03/07 03:09:41;;;;;;;;;20.00;19.25;;;;;10.14;100.00;100108.47;5040149;28;45487;-76
2023/03/07 03:12:07;;;;;;;;;23.00;19.50;;;;;10.25;100.00;100109.22;5026274;28;45876;-77
2023/03/07 03:14:32;;;;;;;;;22.00;18.25;;;;;10.33;100.00;100128.28;5032084;28;46030;-77
2023/03/07 03:16:58;;;;;;;;;26.75;23.00;;;;;10.30;100.00;100110.44;5024278;28;45272;-75
2023/03/07 03:19:23;;;;;;;;;27.00;21.75;;;;;10.16;100.00;100084.72;5041364;28;45338;-76
2023/03/07 03:21:48;;;;;;;;;28.00;21.50;;;;;10.29;100.00;100105.19;5038447;28;45288;-75
2023/03/07 03:24:14;;;;;;;;;25.75;22.50;;;;;10.19;100.00;100109.88;5037492;28;46920;-76
2023/03/07 03:26:40;;;;;;;;;24.25;18.50;;;;;10.17;100.00;100104.59;5039968;28;46694;-76
2023/03/07 03:29:05;;;;;;;;;22.25;19.25;;;;;10.01;100.00;100085.47;5038030;28;45464;-75
2023/03/07 03:31:31;;;;;;;;;20.75;19.50;;;;;10.02;100.00;100085.31;5041720;28;45396;-76
2023/03/07 03:33:57;;;;;;;;;26.00;20.25;;;;;10.02;100.00;100095.31;5038222;28;46564;-76
2023/03/07 03:36:24;;;;;;;;;29.00;22.50;;;;;10.14;100.00;100103.03;5038154;28;45746;-76
2023/03/07 03:38:57;;;;;;;;;31.50;24.75;;;;;10.04;100.00;100098.72;5043614;28;45283;-76
2023/03/07 03:41:24;;;;;;;;;23.75;17.00;;;;;10.10;100.00;100082.66;5039457;28;45281;-75
2023/03/07 03:43:49;;;;;;;;;22.25;20.25;;;;;10.24;100.00;100102.09;5039199;28;45639;-75
2023/03/07 03:46:18;;;;;;;;;24.50;20.75;;;;;9.97;100.00;100078.69;5046229;28;45302;-75
2023/03/07 03:48:43;;;;;;;;;22.75;18.50;;;;;9.90;100.00;100088.47;5047781;28;46514;-76
2023/03/07 03:51:15;;;;;;;;;26.00;21.25;;;;;9.73;100.00;100076.66;5044580;28;45311;-75
2023/03/07 03:53:41;;;;;;;;;28.00;21.75;;;;;9.76;100.00;100066.34;5051882;28;47480;-76
2023/03/07 03:56:13;;;;;;;;;22.50;19.50;;;;;10.07;100.00;100085.72;5046170;28;45291;-76
2023/03/07 03:58:39;;;;;;;;;21.50;20.75;;;;;9.93;100.00;100061.88;5048082;28;45422;-76
2023/03/07 04:01:08;;;;;;;;;23.25;19.50;;;;;10.03;100.00;100086.16;5040720;28;45457;-75
2023/03/07 04:03:35;;;;;;;;;26.75;22.50;;;;;10.00;100.00;100056.66;5042888;28;45961;-76
2023/03/07 04:06:06;;;;;;;;;23.00;21.00;;;;;10.06;100.00;100053.28;5041254;28;45810;-75
2023/03/07 04:08:33;;;;;;;;;20.75;17.00;;;;;10.16;100.00;100062.13;5042970;28;45453;-76
2023/03/07 04:10:58;;;;;;;;;20.25;16.50;;;;;10.12;100.00;100061.63;5042533;28;45276;-76
2023/03/07 04:13:24;;;;;;;;;23.00;19.25;;;;;10.12;100.00;100071.63;5039401;28;46880;-76
2023/03/07 04:15:50;;;;;;;;;25.75;20.50;;;;;10.11;100.00;100076.22;5047096;28;45315;-76
2023/03/07 04:18:16;;;;;;;;;16.75;15.50;;;;;9.95;100.00;100046.28;5041235;28;45557;-76
2023/03/07 04:20:43;;;;;;;;;21.25;19.25;;;;;10.11;100.00;100059.06;5047221;28;45338;-75
2023/03/07 04:23:09;;;;;;;;;27.50;20.75;;;;;10.19;100.00;100061.88;5039391;28;46385;-75
2023/03/07 04:25:34;;;;;;;;;24.50;18.25;;;;;10.10;100.00;100055.50;5046314;28;45232;-75
2023/03/07 04:28:00;;;;;;;;;22.50;19.75;;;;;10.04;100.00;100053.44;5046433;28;45348;-75
2023/03/07 04:30:25;;;;;;;;;19.00;17.75;;;;;10.04;100.00;100056.16;5047157;28;45385;-76
2023/03/07 04:32:51;;;;;;;;;24.25;22.00;;;;;9.68;100.00;100000.34;5036991;28;45342;-75
2023/03/07 04:35:16;;;;;;;;;23.00;18.00;;;;;9.83;100.00;100038.56;5045115;28;45227;-75
2023/03/07 04:37:41;;;;;;;;;16.50;13.25;;;;;9.98;100.00;100070.38;5036145;28;45810;-75
2023/03/07 04:40:08;;;;;;;;;28.50;24.00;;;;;9.93;100.00;100045.59;5046033;28;45246;-75
2023/03/07 04:42:33;;;;;;;;;25.25;21.75;;;;;10.04;100.00;100064.31;5046936;28;46543;-75
2023/03/07 04:44:59;;;;;;;;;24.50;15.50;;;;;9.81;100.00;100032.44;5044548;28;45521;-76
2023/03/07 04:47:24;;;;;;;;;23.75;17.25;;;;;9.97;100.00;100052.41;5035775;28;45211;-76
2023/03/07 04:49:49;;;;;;;;;16.50;16.00;;;;;10.00;100.00;100035.81;5046882;28;45594;-76
2023/03/07 04:52:15;;;;;;;;;25.25;17.75;;;;;10.08;100.00;100037.72;5058089;28;47010;-76
2023/03/07 04:54:40;;;;;;;;;23.75;21.00;;;;;10.15;100.00;100034.16;5042185;28;45350;-76
2023/03/07 04:57:06;;;;;;;;;23.00;19.50;;;;;10.02;100.00;100014.75;5044684;28;46205;-75
2023/03/07 04:59:31;;;;;;;;;26.25;21.25;;;;;10.08;100.00;100024.94;5039253;28;45405;-75
2023/03/07 05:01:56;;;;;;;;;24.00;18.25;;;;;10.20;100.00;100041.00;5037484;28;45452;-76
2023/03/07 05:04:22;;;;;;;;;23.75;17.75;;;;;9.97;100.00;100019.84;5034081;28;45390;-76
2023/03/07 05:06:47;;;;;;;;;19.50;18.75;;;;;10.01;100.00;100025.75;5030608;28;46124;-76
2023/03/07 05:09:12;;;;;;;;;25.67;21.00;;;;;9.95;100.00;100012.84;5038717;28;45468;-76
2023/03/07 05:11:38;;;;;;;;;23.00;17.25;;;;;9.90;100.00;100015.22;5037375;28;46115;-76
2023/03/07 05:14:03;;;;;;;;;17.75;13.50;;;;;9.98;100.00;100040.53;5037617;28;45580;-75
2023/03/07 05:16:29;;;;;;;;;23.00;20.00;;;;;9.83;100.00;100006.88;5043507;28;45439;-77
2023/03/07 05:18:54;;;;;;;;;25.25;20.50;;;;;9.92;100.00;100010.47;5035373;28;45422;-75
2023/03/07 05:21:19;;;;;;;;;17.25;16.25;;;;;9.99;100.00;100036.81;5034319;28;45701;-75
2023/03/07 05:23:45;;;;;;;;;22.75;19.00;;;;;9.91;100.00;100030.47;5030362;28;45265;-75
2023/03/07 05:26:10;;;;;;;;;22.00;15.75;;;;;9.55;100.00;100030.63;5044647;28;45369;-77
2023/03/07 05:28:35;;;;;;;;;26.50;21.00;;;;;9.50;100.00;100029.38;5033747;28;45333;-76
2023/03/07 05:31:01;;;;;;;;;17.00;13.00;;;;;9.64;100.00;100001.69;5042604;28;47545;-77
2023/03/07 05:33:26;;;;;;;;;21.25;18.00;;;;;9.72;100.00;100020.69;5031914;28;45244;-76
2023/03/07 05:35:54;;;;;;;;;27.00;20.00;;;;;9.80;100.00;100028.88;5041574;28;45366;-77
2023/03/07 05:38:19;;;;;;;;;33.75;25.25;;;;;9.35;100.00;99958.63;5039730;28;45271;-78
2023/03/07 05:40:45;;;;;;;;;23.25;21.25;;;;;9.62;100.00;100039.81;5041589;28;45701;-75
2023/03/07 05:43:10;;;;;;;;;27.00;26.25;;;;;9.64;100.00;100012.53;5038232;28;45769;-74
2023/03/07 05:45:35;;;;;;;;;15.00;15.00;;;;;9.69;100.00;100011.03;5037129;28;45320;-77
2023/03/07 05:48:01;;;;;;;;;20.50;19.50;;;;;9.51;100.00;99980.41;5040131;28;46476;-76
2023/03/07 05:50:26;;;;;;;;;23.25;18.00;;;;;9.63;100.00;99995.41;5037577;28;46880;-77
2023/03/07 05:52:51;;;;;;;;;22.25;18.50;;;;;9.76;100.00;100017.53;5050710;28;45659;-75
2023/03/07 05:55:17;;;;;;;;;22.00;20.25;;;;;9.78;100.00;100020.09;5043702;28;45428;-75
2023/03/07 05:57:43;;;;;;;;;29.25;26.75;;;;;9.52;100.00;100022.78;5038767;28;45413;-76
2023/03/07 06:00:10;;;;;;;;;20.50;18.50;;;;;9.60;100.00;99984.03;5040865;28;45469;-75
2023/03/07 06:02:35;;;;;;;;;20.50;18.75;;;;;9.75;100.00;99994.13;5041478;28;45229;-75
2023/03/07 06:05:01;;;;;;;;;22.50;19.00;;;;;9.86;100.00;100013.84;5035266;28;45426;-76
2023/03/07 06:07:26;;;;;;;;;23.25;17.75;;;;;9.90;100.00;100001.66;5036157;28;45443;-75
2023/03/07 06:09:51;;;;;;;;;23.25;17.00;;;;;9.94;100.00;100014.72;5041323;28;45672;-76
2023/03/07 06:12:17;;;;;;;;;29.25;18.00;;;;;9.60;100.00;99986.72;5033362;28;45215;-75
2023/03/07 06:14:42;;;;;;;;;17.75;16.25;;;;;9.72;100.00;99980.00;5039428;28;45134;-75
2023/03/07 06:17:07;;;;;;;;;22.00;18.00;;;;;9.89;100.00;100008.06;5037334;28;45674;-75
2023/03/07 06:19:33;;;;;;;;;27.25;19.75;;;;;9.95;100.00;100011.00;5038662;28;46594;-75
2023/03/07 06:21:58;;;;;;;;;23.00;21.00;;;;;9.94;100.00;100008.44;5037857;28;46534;-75
2023/03/07 06:24:24;;;;;;;;;24.25;20.00;;;;;9.97;100.00;100013.56;5041038;28;45383;-76
2023/03/07 06:26:49;;;;;;;;;31.75;23.75;;;;;9.97;100.00;100008.97;5040250;28;45312;-76
2023/03/07 06:29:14;;;;;;;;;22.00;18.25;;;;;9.99;100.00;100004.25;5043716;28;46403;-76
2023/03/07 06:31:40;;;;;;;;;24.00;22.00;;;;;9.95;100.00;99994.72;5051578;28;45719;-77
2023/03/07 06:34:05;;;;;;;;;24.50;20.00;;;;;10.00;100.00;100002.38;5029876;28;45367;-76
2023/03/07 06:36:31;;;;;;;;;26.75;18.50;;;;;10.04;100.00;100001.03;5037344;28;45603;-76
2023/03/07 06:38:56;;;;;;;;;31.50;21.75;;;;;9.88;100.00;99982.81;5047330;28;46725;-76
2023/03/07 06:41:21;;;;;;;;;24.25;17.50;;;;;9.72;100.00;99959.16;5039467;28;45441;-76
2023/03/07 06:43:51;;;;;;;;;22.50;17.00;;;;;9.98;100.00;100002.53;5051473;28;45439;-76
2023/03/07 06:46:17;;;;;;;;;27.00;22.00;;;;;9.94;100.00;100005.72;5040873;28;45384;-75
2023/03/07 06:48:42;;;;;;;;;23.50;19.50;;;;;9.67;100.00;99966.94;5046212;28;46741;-76
2023/03/07 06:51:09;;;;;;;;;23.75;17.00;;;;;9.92;100.00;99988.78;5037508;28;45292;-75
2023/03/07 06:53:35;;;;;;;;;26.25;21.00;;;;;9.87;100.00;99999.25;5033417;28;48425;-75
2023/03/07 06:56:00;;;;;;;;;28.00;18.00;;;;;9.92;100.00;99995.06;5038571;28;45392;-75
2023/03/07 06:58:25;;;;;;;;;21.50;21.25;;;;;9.79;100.00;99978.34;5031691;28;45503;-77
2023/03/07 07:00:51;;;;;;;;;17.75;17.00;;;;;9.81;100.00;99992.59;5038197;28;45359;-75
2023/03/07 07:03:18;;;;;;;;;20.00;16.50;;;;;9.80;100.00;99979.19;5036111;28;45381;-75
2023/03/07 07:05:44;;;;;;;;;25.00;22.75;;;;;10.10;100.00;100013.94;5039162;28;45589;-77
2023/03/07 07:08:09;;;;;;;;;21.75;19.00;;;;;10.12;100.00;99996.50;5030011;28;47008;-76
2023/03/07 07:10:35;;;;;;;;;19.50;17.75;;;;;9.87;100.00;99953.97;5040326;28;45255;-77
2023/03/07 07:13:01;;;;;;;;;24.50;17.25;;;;;10.00;100.00;99981.53;5034958;28;45285;-77
2023/03/07 07:15:27;;;;;;;;;19.00;19.00;;;;;10.23;100.00;100013.53;5043429;28;45582;-78
2023/03/07 07:17:52;;;;;;;;;22.50;19.00;;;;;10.21;100.00;100010.97;5042388;28;45913;-76
2023/03/07 07:20:18;;;;;;;;;22.50;20.00;;;;;10.16;100.00;100002.44;5039222;28;45201;-77
2023/03/07 07:22:43;;;;;;;;;18.25;17.00;;;;;10.18;100.00;99991.44;5023506;28;45335;-77
2023/03/07 07:25:09;;;;;;;;;31.00;20.25;;;;;10.13;100.00;99986.47;5036740;28;45236;-76
2023/03/07 07:27:38;;;;;;;;;36.25;28.75;;;;;10.05;100.00;99968.31;5049785;28;46959;-78
2023/03/07 07:30:04;;;;;;;;;20.00;16.00;;;;;10.18;100.00;99986.00;5039546;28;45404;-79
2023/03/07 07:32:30;;;;;;;;;14.00;13.00;;;;;10.04;100.00;99976.59;5044948;28;45558;-78
2023/03/07 07:34:56;;;;;;;;;22.25;18.00;;;;;10.27;100.00;100004.03;5057079;28;45694;-78
2023/03/07 07:37:22;;;;;;;;;26.00;23.00;;;;;10.34;100.00;100015.94;5040758;28;47474;-77
2023/03/07 07:39:49;;;;;;;;;23.50;20.00;;;;;10.35;100.00;100009.50;5041948;28;45402;-78
2023/03/07 07:42:14;;;;;;;;;26.75;19.00;;;;;10.30;100.00;99982.00;5039060;28;45246;-78
2023/03/07 07:44:40;;;;;;;;;22.50;18.00;;;;;10.24;100.00;99977.22;5041912;28;45574;-78
2023/03/07 07:47:05;;;;;;;;;22.75;17.50;;;;;10.34;100.00;99989.63;5035250;28;46021;-78
2023/03/07 07:49:31;;;;;;;;;22.25;19.75;;;;;10.37;100.00;99988.47;5038683;28;45410;-78
2023/03/07 07:51:56;;;;;;;;;19.50;16.25;;;;;10.43;100.00;99985.09;5053066;28;45259;-78
2023/03/07 07:54:22;;;;;;;;;27.75;23.00;;;;;10.34;100.00;99977.94;5043560;28;45479;-78
2023/03/07 07:56:47;;;;;;;;;21.50;17.25;;;;;10.45;100.00;100012.91;5056249;28;46578;-77
2023/03/07 07:59:12;;;;;;;;;25.75;18.50;;;;;10.19;100.00;100002.16;5038143;28;45413;-77
2023/03/07 08:01:38;;;;;;;;;20.25;16.50;;;;;10.19;100.00;99969.56;5039243;28;45283;-77
2023/03/07 08:04:04;;;;;;;;;18.67;16.33;;;;;10.38;100.00;99985.56;5040104;28;45543;-78
2023/03/07 08:06:29;;;;;;;;;20.00;17.25;;;;;10.53;100.00;100002.91;5040418;28;45259;-78
2023/03/07 08:08:55;;;;;;;;;27.50;20.50;;;;;10.58;100.00;99996.16;5045168;28;45454;-78
2023/03/07 08:11:22;;;;;;;;;19.25;18.00;;;;;10.50;100.00;99992.41;5045289;28;45289;-77
2023/03/07 08:13:48;;;;;;;;;21.67;17.33;;;;;10.33;100.00;99993.38;5039797;28;45357;-79
2023/03/07 08:16:16;;;;;;;;;18.67;15.00;;;;;10.50;100.00;100002.41;5038607;28;45348;-78
2023/03/07 08:18:46;;;;;;;;;14.33;13.33;;;;;10.38;100.00;99957.56;5048958;28;45465;-79
2023/03/07 08:21:11;;;;;;;;;24.00;19.25;;;;;10.61;100.00;100010.22;5030021;28;45518;-77
2023/03/07 08:23:37;;;;;;;;;23.50;19.00;;;;;10.54;100.00;100009.19;5041550;28;45425;-78
2023/03/07 08:26:03;;;;;;;;;19.67;17.00;;;;;10.48;100.00;99980.84;5043535;28;46662;-78
2023/03/07 08:28:29;;;;;;;;;21.33;18.00;;;;;10.23;100.00;99991.81;5032549;28;45275;-77
2023/03/07 08:30:54;;;;;;;;;13.33;11.00;;;;;10.09;100.00;99987.81;5044981;28;45311;-78
2023/03/07 08:33:20;;;;;;;;;23.67;18.00;;;;;10.27;100.00;99993.19;5041519;28;45284;-77
2023/03/07 08:35:45;;;;;;;;;13.67;13.67;;;;;10.56;100.00;100022.63;5043892;28;46200;-77
2023/03/07 08:38:10;;;;;;;;;23.33;19.00;;;;;10.13;100.00;99975.63;5046800;28;45328;-78
2023/03/07 08:40:36;;;;;;;;;26.00;17.33;;;;;10.18;100.00;99999.59;5047288;28;45351;-77
2023/03/07 08:43:01;;;;;;;;;21.67;17.33;;;;;10.30;100.00;99990.16;5045547;28;45540;-77
2023/03/07 08:45:26;;;;;;;;;31.00;18.00;;;;;10.35;100.00;100004.91;5049451;28;45648;-77
2023/03/07 08:47:53;;;;;;;;;25.50;18.25;;;;;10.67;100.00;100000.56;5029786;28;45681;-76
2023/03/07 08:50:20;;;;;;;;;12.33;11.33;;;;;10.84;100.00;100003.16;5048742;28;45276;-78
2023/03/07 08:52:46;;;;;;;;;18.67;17.67;;;;;10.88;100.00;99999.06;5037159;28;45620;-77
2023/03/07 08:55:11;;;;;;;;;17.33;11.67;;;;;10.97;100.00;99999.06;5042798;28;46398;-77
2023/03/07 08:57:37;;;;;;;;;18.00;17.67;;;;;11.08;100.00;99999.59;5044132;28;45315;-78
2023/03/07 09:00:04;;;;;;;;;15.33;14.67;;;;;11.12;100.00;100013.69;5046760;28;45458;-76
2023/03/07 09:02:29;;;;;;;;;13.00;9.67;;;;;10.89;100.00;100000.75;5049705;28;45405;-77
2023/03/07 09:04:54;;;;;;;;;19.33;18.00;;;;;10.76;100.00;100013.16;5037617;28;47106;-77
2023/03/07 09:07:20;;;;;;;;;25.33;18.33;;;;;10.91;100.00;100008.75;5035031;28;45571;-77
2023/03/07 09:09:45;;;;;;;;;22.50;18.75;;;;;10.71;100.00;100007.38;5058060;28;45369;-77
2023/03/07 09:12:11;;;;;;;;;19.33;17.00;;;;;11.01;100.00;100016.75;5031795;28;45382;-77
2023/03/07 09:14:37;;;;;;;;;16.00;14.33;;;;;11.02;100.00;99981.25;5054252;28;47104;-77
2023/03/07 09:17:03;;;;;;;;;20.00;18.67;;;;;10.97;100.00;100004.50;5033822;28;45513;-77
2023/03/07 09:19:28;;;;;;;;;21.50;18.50;;;;;11.00;100.00;99987.88;5050869;28;45446;-79
2023/03/07 09:21:54;;;;;;;;;19.00;17.67;;;;;11.11;100.00;99995.66;5041540;28;45331;-77
2023/03/07 09:24:19;;;;;;;;;17.67;14.33;;;;;11.07;100.00;99975.28;5033381;28;46306;-78
2023/03/07 09:26:45;;;;;;;;;18.00;13.00;;;;;10.93;100.00;99950.50;5030962;28;45473;-77
2023/03/07 09:29:11;;;;;;;;;15.33;14.00;;;;;11.37;100.00;99952.00;5035130;28;45292;-77
2023/03/07 09:31:37;;;;;;;;;16.67;13.00;;;;;11.69;100.00;99979.94;5039679;28;45384;-76
2023/03/07 09:34:04;;;;;;;;;12.33;12.33;;;;;11.35;100.00;99968.47;5044234;28;47700;-77
2023/03/07 09:36:29;;;;;;;;;20.00;14.00;;;;;11.38;100.00;99979.03;5038912;28;45307;-77
2023/03/07 09:38:55;;;;;;;;;14.00;11.67;;;;;11.25;100.00;99984.13;5039366;28;45437;-77
2023/03/07 09:41:32;;;;;;;;;26.33;19.67;;;;;11.45;100.00;99996.34;5040568;28;45417;-77
2023/03/07 09:44:06;;;;;;;;;15.33;13.33;;;;;11.64;100.00;99990.50;5040975;28;45552;-77
2023/03/07 09:46:35;;;;;;;;;18.67;16.67;;;;;11.97;100.00;99990.47;5042749;28;45520;-76
2023/03/07 09:49:15;;;;;;;;;17.33;15.67;;;;;12.12;100.00;99964.19;5038457;28;45374;-77
2023/03/07 09:51:42;;;;;;;;;13.33;9.67;;;;;12.11;100.00;99965.22;5042943;28;45350;-76
2023/03/07 09:54:08;;;;;;;;;20.00;17.33;;;;;12.02;100.00;99977.16;5040205;28;45473;-76
2023/03/07 09:56:56;;;;;;;;;12.33;12.33;;;;;11.89;100.00;99971.44;5033775;28;45445;-76
2023/03/07 09:59:42;;;;;;;;;15.00;12.67;;;;;12.00;100.00;99977.34;5036648;28;45295;-76
2023/03/07 10:02:20;;;;;;;;;21.33;16.00;;;;;11.94;100.00;99958.13;5035714;28;45221;-77
2023/03/07 10:05:00;;;;;;;;;16.00;14.67;;;;;12.03;100.00;99967.97;5050470;28;47156;-77
2023/03/07 10:07:26;;;;;;;;;14.67;14.67;;;;;11.71;100.00;99961.59;5034334;28;45406;-78
2023/03/07 10:10:09;;;;;;;;;21.33;18.33;;;;;11.92;100.00;99961.03;5033997;28;45356;-78
2023/03/07 10:12:53;;;;;;;;;19.33;14.67;;;;;12.49;100.00;99955.31;5042546;28;45430;-77
2023/03/07 10:15:34;;;;;;;;;18.00;15.33;;;;;12.77;100.00;99934.66;5039404;28;45686;-77
2023/03/07 10:18:12;;;;;;;;;16.67;14.67;;;;;13.01;100.00;99957.28;5043107;28;45610;-77
2023/03/07 10:20:43;;;;;;;;;29.00;21.33;;;;;12.66;100.00;99956.03;5040760;28;45368;-77
2023/03/07 10:23:31;;;;;;;;;27.00;22.00;;;;;12.98;100.00;99950.34;5054207;28;45643;-78
2023/03/07 10:26:27;;;;;;;;;18.33;14.33;;;;;12.85;99.60;99958.28;5030393;28;47624;-78
2023/03/07 10:28:52;;;;;;;;;18.33;14.33;;;;;12.39;100.00;99939.19;5040123;28;45365;-77
2023/03/07 10:31:30;;;;;;;;;21.33;20.33;;;;;12.34;100.00;99943.50;5055077;28;45484;-78
2023/03/07 10:51:49;;;;;;;;;16.00;15.33;;;;;12.72;94.62;99942.53;5061960;28;45471;-77
2023/03/07 10:54:21;;;;;;;;;24.75;19.25;;;;;13.10;94.09;99937.94;5060784;28;46172;-77
2023/03/07 10:57:08;;;;;;;;;23.25;15.50;;;;;13.07;93.21;99935.63;5063758;28;45412;-76
2023/03/07 10:59:34;;;;;;;;;21.67;17.33;;;;;13.38;92.85;99921.84;5063004;28;45392;-77
2023/03/07 11:02:01;;;;;;;;;12.00;10.33;;;;;13.16;90.77;99918.16;5039975;28;47655;-76
2023/03/07 11:04:41;;;;;;;;;20.00;14.33;;;;;13.47;91.75;99919.88;5058091;28;45364;-77
2023/03/07 11:07:33;;;;;;;;;13.67;13.33;;;;;13.85;90.88;99913.31;5059825;28;45513;-76
2023/03/07 11:10:00;;;;;;;;;17.00;15.67;;;;;14.17;88.69;99911.19;5045012;28;45483;-77
2023/03/07 11:12:28;;;;;;;;;17.33;13.67;;;;;14.02;85.38;99903.03;5055889;28;45536;-78
2023/03/07 11:14:57;;;;;;;;;14.33;11.00;;;;;14.21;84.40;99912.50;5040805;28;45355;-78
2023/03/07 11:17:43;;;;;;;;;17.00;14.67;;;;;14.10;82.38;99916.53;5039421;28;45398;-78
2023/03/07 11:20:26;;;;;;;;;17.67;15.67;;;;;14.36;79.17;99921.50;5007220;28;45394;-77
2023/03/07 11:23:11;;;;;;;;;14.00;12.33;;;;;14.58;78.57;99925.97;4997429;28;46792;-77
2023/03/07 11:25:36;;;;;;;;;19.00;16.67;;;;;14.14;76.80;99917.88;5034304;28;45338;-77
2023/03/07 11:28:02;;;;;;;;;22.67;19.67;;;;;14.36;76.42;99926.97;4998406;28;45485;-77